sensor_id;sensor_type;location;lat;lon;timestamp;temperature;humidity
30572;DHT22;17348;50.948;10.696;2024-03-06T00:03:02;5.40;99.90
30572;DHT22;17348;50.948;10.696;2024-03-06T00:06:04;5.40;99.90
30572;DHT22;17348;50.948;10.696;2024-03-06T00:09:07;5.40;99.90
30572;DHT22;17348;50.948;10.696;2024-03-06T00:12:09;5.40;99.90
30572;DHT22;17348;50.948;10.696;2024-03-06T00:15:11;5.40;99.90
30572;DHT22;17348;50.948;10.696;2024-03-06T00:18:15;5.40;99.90
30572;DHT22;17348;50.948;10.696;2024-03-06T00:21:18;5.40;99.90
30572;DHT22;17348;50.948;10.696;2024-03-06T00:24:20;5.40;99.90
30572;DHT22;17348;50.948;10.696;2024-03-06T00:27:23;5.40;99.90
30572;DHT22;17348;50.948;10.696;2024-03-06T00:30:26;5.40;99.90
30572;DHT22;17348;50.948;10.696;2024-03-06T00:33:29;5.40;99.90
30572;DHT22;17348;50.948;10.696;2024-03-06T00:36:32;5.40;99.90
30572;DHT22;17348;50.948;10.696;2024-03-06T00:39:35;5.40;99.90
30572;DHT22;17348;50.948;10.696;2024-03-06T00:42:38;5.40;99.90
30572;DHT22;17348;50.948;10.696;2024-03-06T00:45:41;5.40;99.90
30572;DHT22;17348;50.948;10.696;2024-03-06T00:48:45;5.40;99.90
30572;DHT22;17348;50.948;10.696;2024-03-06T00:51:47;5.30;99.90
30572;DHT22;17348;50.948;10.696;2024-03-06T00:54:49;5.40;99.90
30572;DHT22;17348;50.948;10.696;2024-03-06T00:57:52;5.40;99.90
30572;DHT22;17348;50.948;10.696;2024-03-06T01:00:54;5.40;99.90
30572;DHT22;17348;50.948;10.696;2024-03-06T01:03:58;5.40;99.90
30572;DHT22;17348;50.948;10.696;2024-03-06T01:07:00;5.40;99.90
30572;DHT22;17348;50.948;10.696;2024-03-06T01:10:04;5.40;99.90
30572;DHT22;17348;50.948;10.696;2024-03-06T01:13:07;5.50;99.90
30572;DHT22;17348;50.948;10.696;2024-03-06T01:16:11;5.40;99.90
30572;DHT22;17348;50.948;10.696;2024-03-06T01:19:15;5.50;99.90
30572;DHT22;17348;50.948;10.696;2024-03-06T01:22:18;5.50;99.90
30572;DHT22;17348;50.948;10.696;2024-03-06T01:25:20;5.50;99.90
30572;DHT22;17348;50.948;10.696;2024-03-06T01:28:23;5.60;99.90
30572;DHT22;17348;50.948;10.696;2024-03-06T01:31:25;5.70;99.90
30572;DHT22;17348;50.948;10.696;2024-03-06T01:34:28;5.70;99.90
30572;DHT22;17348;50.948;10.696;2024-03-06T01:37:31;5.70;99.90
30572;DHT22;17348;50.948;10.696;2024-03-06T01:40:33;5.70;99.90
30572;DHT22;17348;50.948;10.696;2024-03-06T01:43:37;5.70;99.90
30572;DHT22;17348;50.948;10.696;2024-03-06T01:46:40;5.80;99.90
30572;DHT22;17348;50.948;10.696;2024-03-06T01:49:44;5.80;99.90
30572;DHT22;17348;50.948;10.696;2024-03-06T01:52:46;5.80;99.90
30572;DHT22;17348;50.948;10.696;2024-03-06T01:55:49;5.80;99.90
30572;DHT22;17348;50.948;10.696;2024-03-06T01:58:51;5.80;99.90
30572;DHT22;17348;50.948;10.696;2024-03-06T02:01:54;5.70;99.90
30572;DHT22;17348;50.948;10.696;2024-03-06T02:04:57;5.70;99.90
30572;DHT22;17348;50.948;10.696;2024-03-06T02:08:01;5.80;99.90
30572;DHT22;17348;50.948;10.696;2024-03-06T02:11:03;5.80;99.90
30572;DHT22;17348;50.948;10.696;2024-03-06T02:14:06;5.80;99.90
30572;DHT22;17348;50.948;10.696;2024-03-06T02:17:13;5.70;99.90
30572;DHT22;17348;50.948;10.696;2024-03-06T02:20:21;5.70;99.90
30572;DHT22;17348;50.948;10.696;2024-03-06T02:23:23;5.80;99.90
30572;DHT22;17348;50.948;10.696;2024-03-06T02:26:26;5.80;99.90
30572;DHT22;17348;50.948;10.696;2024-03-06T02:29:28;5.80;99.90
30572;DHT22;17348;50.948;10.696;2024-03-06T02:32:31;5.80;99.90
30572;DHT22;17348;50.948;10.696;2024-03-06T02:35:35;5.80;99.90
30572;DHT22;17348;50.948;10.696;2024-03-06T02:38:37;5.80;99.90
30572;DHT22;17348;50.948;10.696;2024-03-06T02:41:39;5.80;99.90
30572;DHT22;17348;50.948;10.696;2024-03-06T02:44:42;5.80;99.90
30572;DHT22;17348;50.948;10.696;2024-03-06T02:47:44;5.80;99.90
30572;DHT22;17348;50.948;10.696;2024-03-06T02:50:48;5.80;99.90
30572;DHT22;17348;50.948;10.696;2024-03-06T02:53:50;5.80;99.90
30572;DHT22;17348;50.948;10.696;2024-03-06T02:56:54;5.80;99.90
30572;DHT22;17348;50.948;10.696;2024-03-06T02:59:56;5.70;99.90
30572;DHT22;17348;50.948;10.696;2024-03-06T03:02:59;5.70;99.90
30572;DHT22;17348;50.948;10.696;2024-03-06T03:06:03;5.70;99.90
30572;DHT22;17348;50.948;10.696;2024-03-06T03:09:05;5.70;99.90
30572;DHT22;17348;50.948;10.696;2024-03-06T03:12:08;5.70;99.90
30572;DHT22;17348;50.948;10.696;2024-03-06T03:15:12;5.70;99.90
30572;DHT22;17348;50.948;10.696;2024-03-06T03:18:14;5.70;99.90
30572;DHT22;17348;50.948;10.696;2024-03-06T03:21:18;5.70;99.90
30572;DHT22;17348;50.948;10.696;2024-03-06T03:24:20;5.70;99.90
30572;DHT22;17348;50.948;10.696;2024-03-06T03:27:23;5.70;99.90
30572;DHT22;17348;50.948;10.696;2024-03-06T03:30:25;5.60;99.90
30572;DHT22;17348;50.948;10.696;2024-03-06T03:33:27;5.60;99.90
30572;DHT22;17348;50.948;10.696;2024-03-06T03:36:31;5.70;99.90
30572;DHT22;17348;50.948;10.696;2024-03-06T03:39:34;5.70;99.90
30572;DHT22;17348;50.948;10.696;2024-03-06T03:42:36;5.70;99.90
30572;DHT22;17348;50.948;10.696;2024-03-06T03:45:39;5.70;99.90
30572;DHT22;17348;50.948;10.696;2024-03-06T03:48:41;5.70;99.90
30572;DHT22;17348;50.948;10.696;2024-03-06T03:51:45;5.70;99.90
30572;DHT22;17348;50.948;10.696;2024-03-06T03:54:48;5.70;99.90
30572;DHT22;17348;50.948;10.696;2024-03-06T03:57:50;5.80;99.90
30572;DHT22;17348;50.948;10.696;2024-03-06T04:00:53;5.70;99.90
30572;DHT22;17348;50.948;10.696;2024-03-06T04:03:56;5.70;99.90
30572;DHT22;17348;50.948;10.696;2024-03-06T04:07:00;5.70;99.90
30572;DHT22;17348;50.948;10.696;2024-03-06T04:10:03;5.70;99.90
30572;DHT22;17348;50.948;10.696;2024-03-06T04:13:05;5.70;99.90
30572;DHT22;17348;50.948;10.696;2024-03-06T04:16:15;5.70;99.90
30572;DHT22;17348;50.948;10.696;2024-03-06T04:19:20;5.70;99.90
30572;DHT22;17348;50.948;10.696;2024-03-06T04:22:24;5.70;99.90
30572;DHT22;17348;50.948;10.696;2024-03-06T04:25:27;5.70;99.90
30572;DHT22;17348;50.948;10.696;2024-03-06T04:28:29;5.70;99.90
30572;DHT22;17348;50.948;10.696;2024-03-06T04:31:31;5.70;99.90
30572;DHT22;17348;50.948;10.696;2024-03-06T04:34:34;5.70;99.90
30572;DHT22;17348;50.948;10.696;2024-03-06T04:37:38;5.70;99.90
30572;DHT22;17348;50.948;10.696;2024-03-06T04:40:40;5.80;99.90
30572;DHT22;17348;50.948;10.696;2024-03-06T04:43:42;5.60;99.90
30572;DHT22;17348;50.948;10.696;2024-03-06T04:46:45;5.60;99.90
30572;DHT22;17348;50.948;10.696;2024-03-06T04:49:47;5.60;99.90
30572;DHT22;17348;50.948;10.696;2024-03-06T04:52:52;5.50;99.90
30572;DHT22;17348;50.948;10.696;2024-03-06T04:55:54;5.50;99.90
30572;DHT22;17348;50.948;10.696;2024-03-06T04:58:57;5.50;99.90
30572;DHT22;17348;50.948;10.696;2024-03-06T05:02:03;5.50;99.90
30572;DHT22;17348;50.948;10.696;2024-03-06T05:05:06;5.50;99.90
30572;DHT22;17348;50.948;10.696;2024-03-06T05:08:10;5.40;99.90
30572;DHT22;17348;50.948;10.696;2024-03-06T05:11:12;5.40;99.90
30572;DHT22;17348;50.948;10.696;2024-03-06T05:14:15;5.40;99.90
30572;DHT22;17348;50.948;10.696;2024-03-06T05:17:17;5.40;99.90
30572;DHT22;17348;50.948;10.696;2024-03-06T05:20:21;5.30;99.90
30572;DHT22;17348;50.948;10.696;2024-03-06T05:23:25;5.30;99.90
30572;DHT22;17348;50.948;10.696;2024-03-06T05:26:27;5.40;99.90
30572;DHT22;17348;50.948;10.696;2024-03-06T05:29:30;5.30;99.90
30572;DHT22;17348;50.948;10.696;2024-03-06T05:32:32;5.30;99.90
30572;DHT22;17348;50.948;10.696;2024-03-06T05:35:34;5.30;99.90
30572;DHT22;17348;50.948;10.696;2024-03-06T05:38:38;5.30;99.90
30572;DHT22;17348;50.948;10.696;2024-03-06T05:41:41;5.30;99.90
30572;DHT22;17348;50.948;10.696;2024-03-06T05:44:43;5.20;99.90
30572;DHT22;17348;50.948;10.696;2024-03-06T05:47:46;5.20;99.90
30572;DHT22;17348;50.948;10.696;2024-03-06T05:50:49;5.20;99.90
30572;DHT22;17348;50.948;10.696;2024-03-06T05:53:53;5.10;99.90
30572;DHT22;17348;50.948;10.696;2024-03-06T05:56:55;5.10;99.90
30572;DHT22;17348;50.948;10.696;2024-03-06T05:59:57;5.00;99.90
30572;DHT22;17348;50.948;10.696;2024-03-06T06:03:00;5.10;99.90
30572;DHT22;17348;50.948;10.696;2024-03-06T06:06:03;5.10;99.90
30572;DHT22;17348;50.948;10.696;2024-03-06T06:09:06;5.00;99.90
30572;DHT22;17348;50.948;10.696;2024-03-06T06:12:13;5.10;99.90
30572;DHT22;17348;50.948;10.696;2024-03-06T06:15:16;5.10;99.90
30572;DHT22;17348;50.948;10.696;2024-03-06T06:18:18;5.10;99.90
30572;DHT22;17348;50.948;10.696;2024-03-06T06:21:21;5.10;99.90
30572;DHT22;17348;50.948;10.696;2024-03-06T06:24:24;5.00;99.90
30572;DHT22;17348;50.948;10.696;2024-03-06T06:27:27;5.10;99.90
30572;DHT22;17348;50.948;10.696;2024-03-06T06:30:29;5.10;99.90
30572;DHT22;17348;50.948;10.696;2024-03-06T06:33:32;5.10;99.90
30572;DHT22;17348;50.948;10.696;2024-03-06T06:36:34;5.10;99.90
30572;DHT22;17348;50.948;10.696;2024-03-06T06:39:40;5.10;99.90
30572;DHT22;17348;50.948;10.696;2024-03-06T06:42:47;5.10;99.90
30572;DHT22;17348;50.948;10.696;2024-03-06T06:45:50;5.10;99.90
30572;DHT22;17348;50.948;10.696;2024-03-06T06:48:52;5.20;99.90
30572;DHT22;17348;50.948;10.696;2024-03-06T06:51:55;5.20;99.90
30572;DHT22;17348;50.948;10.696;2024-03-06T06:54:58;5.20;99.90
30572;DHT22;17348;50.948;10.696;2024-03-06T06:58:01;5.30;99.90
30572;DHT22;17348;50.948;10.696;2024-03-06T07:01:03;5.30;99.90
30572;DHT22;17348;50.948;10.696;2024-03-06T07:04:06;5.30;99.90
30572;DHT22;17348;50.948;10.696;2024-03-06T07:07:08;5.30;99.90
30572;DHT22;17348;50.948;10.696;2024-03-06T07:10:12;5.30;99.90
30572;DHT22;17348;50.948;10.696;2024-03-06T07:13:15;5.30;99.90
30572;DHT22;17348;50.948;10.696;2024-03-06T07:16:18;5.40;99.90
30572;DHT22;17348;50.948;10.696;2024-03-06T07:19:23;5.40;99.90
30572;DHT22;17348;50.948;10.696;2024-03-06T07:22:26;5.40;99.90
30572;DHT22;17348;50.948;10.696;2024-03-06T07:25:29;5.40;99.90
30572;DHT22;17348;50.948;10.696;2024-03-06T07:28:32;5.40;99.90
30572;DHT22;17348;50.948;10.696;2024-03-06T07:31:35;5.40;99.90
30572;DHT22;17348;50.948;10.696;2024-03-06T07:34:37;5.40;99.90
30572;DHT22;17348;50.948;10.696;2024-03-06T07:37:40;5.50;99.90
30572;DHT22;17348;50.948;10.696;2024-03-06T07:40:44;5.50;99.90
30572;DHT22;17348;50.948;10.696;2024-03-06T07:43:46;5.60;99.90
30572;DHT22;17348;50.948;10.696;2024-03-06T07:46:49;5.70;99.90
30572;DHT22;17348;50.948;10.696;2024-03-06T07:49:51;5.70;99.90
30572;DHT22;17348;50.948;10.696;2024-03-06T07:52:54;5.80;99.90
30572;DHT22;17348;50.948;10.696;2024-03-06T07:55:58;5.90;99.90
30572;DHT22;17348;50.948;10.696;2024-03-06T07:59:00;5.90;99.90
30572;DHT22;17348;50.948;10.696;2024-03-06T08:02:03;5.90;99.90
30572;DHT22;17348;50.948;10.696;2024-03-06T08:05:06;5.90;99.90
30572;DHT22;17348;50.948;10.696;2024-03-06T08:08:10;5.80;99.90
30572;DHT22;17348;50.948;10.696;2024-03-06T08:11:14;6.00;99.90
30572;DHT22;17348;50.948;10.696;2024-03-06T08:14:17;6.10;99.90
30572;DHT22;17348;50.948;10.696;2024-03-06T08:17:22;6.20;99.90
30572;DHT22;17348;50.948;10.696;2024-03-06T08:20:25;6.30;99.90
30572;DHT22;17348;50.948;10.696;2024-03-06T08:23:28;6.30;99.90
30572;DHT22;17348;50.948;10.696;2024-03-06T08:26:32;6.40;99.90
30572;DHT22;17348;50.948;10.696;2024-03-06T08:29:35;6.40;99.90
30572;DHT22;17348;50.948;10.696;2024-03-06T08:32:37;6.50;99.90
30572;DHT22;17348;50.948;10.696;2024-03-06T08:35:44;6.60;99.90
30572;DHT22;17348;50.948;10.696;2024-03-06T08:38:47;6.70;99.90
30572;DHT22;17348;50.948;10.696;2024-03-06T08:41:50;6.70;99.90
30572;DHT22;17348;50.948;10.696;2024-03-06T08:44:53;6.70;99.90
30572;DHT22;17348;50.948;10.696;2024-03-06T08:47:56;6.70;99.90
30572;DHT22;17348;50.948;10.696;2024-03-06T08:50:58;6.70;99.90
30572;DHT22;17348;50.948;10.696;2024-03-06T08:54:00;6.70;99.90
30572;DHT22;17348;50.948;10.696;2024-03-06T08:57:05;6.70;99.90
30572;DHT22;17348;50.948;10.696;2024-03-06T09:00:08;6.70;99.90
30572;DHT22;17348;50.948;10.696;2024-03-06T09:03:12;6.80;99.90
30572;DHT22;17348;50.948;10.696;2024-03-06T09:06:14;6.90;99.90
30572;DHT22;17348;50.948;10.696;2024-03-06T09:09:17;7.00;99.90
30572;DHT22;17348;50.948;10.696;2024-03-06T09:12:20;7.00;99.90
30572;DHT22;17348;50.948;10.696;2024-03-06T09:15:23;7.10;99.90
30572;DHT22;17348;50.948;10.696;2024-03-06T09:18:26;7.30;99.90
30572;DHT22;17348;50.948;10.696;2024-03-06T09:21:29;7.50;99.90
30572;DHT22;17348;50.948;10.696;2024-03-06T09:24:31;7.60;99.90
30572;DHT22;17348;50.948;10.696;2024-03-06T09:27:37;7.80;99.90
30572;DHT22;17348;50.948;10.696;2024-03-06T09:30:40;8.00;99.90
30572;DHT22;17348;50.948;10.696;2024-03-06T09:33:43;8.30;99.90
30572;DHT22;17348;50.948;10.696;2024-03-06T09:36:48;8.40;99.90
30572;DHT22;17348;50.948;10.696;2024-03-06T09:39:51;8.60;99.90
30572;DHT22;17348;50.948;10.696;2024-03-06T09:42:54;8.60;99.90
30572;DHT22;17348;50.948;10.696;2024-03-06T09:45:57;8.60;99.90
30572;DHT22;17348;50.948;10.696;2024-03-06T09:48:59;8.50;99.90
30572;DHT22;17348;50.948;10.696;2024-03-06T09:52:03;8.50;99.90
30572;DHT22;17348;50.948;10.696;2024-03-06T09:55:09;8.40;99.90
30572;DHT22;17348;50.948;10.696;2024-03-06T09:58:13;8.40;99.90
30572;DHT22;17348;50.948;10.696;2024-03-06T10:01:16;8.40;99.90
30572;DHT22;17348;50.948;10.696;2024-03-06T10:04:20;8.30;99.90
30572;DHT22;17348;50.948;10.696;2024-03-06T10:07:22;8.20;99.90
30572;DHT22;17348;50.948;10.696;2024-03-06T10:10:25;8.20;99.90
30572;DHT22;17348;50.948;10.696;2024-03-06T10:13:29;8.20;99.90
30572;DHT22;17348;50.948;10.696;2024-03-06T10:16:31;8.30;99.90
30572;DHT22;17348;50.948;10.696;2024-03-06T10:19:34;8.30;99.90
30572;DHT22;17348;50.948;10.696;2024-03-06T10:22:36;8.40;99.90
30572;DHT22;17348;50.948;10.696;2024-03-06T10:25:43;8.50;99.90
30572;DHT22;17348;50.948;10.696;2024-03-06T10:28:47;8.70;99.90
30572;DHT22;17348;50.948;10.696;2024-03-06T10:31:52;8.70;99.90
30572;DHT22;17348;50.948;10.696;2024-03-06T10:34:55;8.80;99.90
30572;DHT22;17348;50.948;10.696;2024-03-06T10:37:59;8.70;99.90
30572;DHT22;17348;50.948;10.696;2024-03-06T10:41:03;8.70;99.90
30572;DHT22;17348;50.948;10.696;2024-03-06T10:44:12;8.80;99.90
30572;DHT22;17348;50.948;10.696;2024-03-06T10:47:20;8.80;99.90
30572;DHT22;17348;50.948;10.696;2024-03-06T10:50:23;8.80;99.90
30572;DHT22;17348;50.948;10.696;2024-03-06T10:53:26;8.90;99.90
30572;DHT22;17348;50.948;10.696;2024-03-06T10:56:29;9.00;99.90
30572;DHT22;17348;50.948;10.696;2024-03-06T10:59:35;9.00;99.90
30572;DHT22;17348;50.948;10.696;2024-03-06T11:02:37;9.00;99.90
30572;DHT22;17348;50.948;10.696;2024-03-06T11:05:42;9.20;99.90
30572;DHT22;17348;50.948;10.696;2024-03-06T11:08:46;9.40;99.90
30572;DHT22;17348;50.948;10.696;2024-03-06T11:11:50;9.50;99.90
30572;DHT22;17348;50.948;10.696;2024-03-06T11:14:55;9.50;99.90
30572;DHT22;17348;50.948;10.696;2024-03-06T11:17:58;9.50;99.90
30572;DHT22;17348;50.948;10.696;2024-03-06T11:24:40;9.30;99.90
30572;DHT22;17348;50.948;10.696;2024-03-06T11:28:04;9.20;99.90
30572;DHT22;17348;50.948;10.696;2024-03-06T11:31:09;9.10;99.90
30572;DHT22;17348;50.948;10.696;2024-03-06T11:34:14;9.20;99.90
30572;DHT22;17348;50.948;10.696;2024-03-06T11:37:20;9.30;99.90
30572;DHT22;17348;50.948;10.696;2024-03-06T11:40:24;9.40;99.90
30572;DHT22;17348;50.948;10.696;2024-03-06T11:43:27;9.40;99.90
30572;DHT22;17348;50.948;10.696;2024-03-06T11:46:44;9.30;99.90
30572;DHT22;17348;50.948;10.696;2024-03-06T11:49:46;9.40;99.90
30572;DHT22;17348;50.948;10.696;2024-03-06T11:52:49;9.50;99.90
30572;DHT22;17348;50.948;10.696;2024-03-06T11:55:52;9.70;99.90
30572;DHT22;17348;50.948;10.696;2024-03-06T11:58:54;9.70;99.90
30572;DHT22;17348;50.948;10.696;2024-03-06T12:01:59;9.70;99.90
30572;DHT22;17348;50.948;10.696;2024-03-06T12:05:02;9.80;99.90
30572;DHT22;17348;50.948;10.696;2024-03-06T12:08:07;10.00;99.90
30572;DHT22;17348;50.948;10.696;2024-03-06T12:11:09;10.10;99.90
30572;DHT22;17348;50.948;10.696;2024-03-06T12:14:16;10.00;99.90
30572;DHT22;17348;50.948;10.696;2024-03-06T12:17:20;10.10;99.90
30572;DHT22;17348;50.948;10.696;2024-03-06T12:20:24;10.00;99.90
30572;DHT22;17348;50.948;10.696;2024-03-06T12:23:26;10.00;99.90
30572;DHT22;17348;50.948;10.696;2024-03-06T12:26:29;10.00;99.90
30572;DHT22;17348;50.948;10.696;2024-03-06T12:29:32;10.10;99.90
30572;DHT22;17348;50.948;10.696;2024-03-06T12:32:36;10.40;99.90
30572;DHT22;17348;50.948;10.696;2024-03-06T12:35:39;10.60;99.90
30572;DHT22;17348;50.948;10.696;2024-03-06T12:38:41;10.60;99.90
30572;DHT22;17348;50.948;10.696;2024-03-06T12:41:44;10.60;99.90
30572;DHT22;17348;50.948;10.696;2024-03-06T12:44:49;10.60;99.90
30572;DHT22;17348;50.948;10.696;2024-03-06T12:47:54;10.40;99.90
30572;DHT22;17348;50.948;10.696;2024-03-06T12:50:57;10.30;99.90
30572;DHT22;17348;50.948;10.696;2024-03-06T12:54:05;10.30;99.90
30572;DHT22;17348;50.948;10.696;2024-03-06T12:57:08;10.20;99.90
30572;DHT22;17348;50.948;10.696;2024-03-06T13:00:11;10.20;99.90
30572;DHT22;17348;50.948;10.696;2024-03-06T13:03:18;10.10;99.90
30572;DHT22;17348;50.948;10.696;2024-03-06T13:06:20;10.20;99.90
30572;DHT22;17348;50.948;10.696;2024-03-06T13:09:23;10.30;99.90
30572;DHT22;17348;50.948;10.696;2024-03-06T13:12:26;10.40;99.90
30572;DHT22;17348;50.948;10.696;2024-03-06T13:15:28;10.50;99.90
30572;DHT22;17348;50.948;10.696;2024-03-06T13:18:32;10.50;99.90
30572;DHT22;17348;50.948;10.696;2024-03-06T13:21:34;10.50;99.90
30572;DHT22;17348;50.948;10.696;2024-03-06T13:24:36;10.60;99.90
30572;DHT22;17348;50.948;10.696;2024-03-06T13:27:39;10.60;99.90
30572;DHT22;17348;50.948;10.696;2024-03-06T13:30:41;10.60;99.90
30572;DHT22;17348;50.948;10.696;2024-03-06T13:33:45;10.60;99.90
30572;DHT22;17348;50.948;10.696;2024-03-06T13:36:47;10.70;99.90
30572;DHT22;17348;50.948;10.696;2024-03-06T13:39:50;10.60;99.90
30572;DHT22;17348;50.948;10.696;2024-03-06T13:42:53;10.70;99.90
30572;DHT22;17348;50.948;10.696;2024-03-06T13:45:56;10.80;99.90
30572;DHT22;17348;50.948;10.696;2024-03-06T13:48:59;11.00;99.90
30572;DHT22;17348;50.948;10.696;2024-03-06T13:52:03;11.00;99.90
30572;DHT22;17348;50.948;10.696;2024-03-06T13:55:07;10.90;99.90
30572;DHT22;17348;50.948;10.696;2024-03-06T13:58:10;10.80;99.90
30572;DHT22;17348;50.948;10.696;2024-03-06T14:01:12;10.70;99.90
30572;DHT22;17348;50.948;10.696;2024-03-06T14:04:16;10.60;99.90
30572;DHT22;17348;50.948;10.696;2024-03-06T14:07:20;10.60;99.90
30572;DHT22;17348;50.948;10.696;2024-03-06T14:10:22;10.60;99.90
30572;DHT22;17348;50.948;10.696;2024-03-06T14:13:25;10.50;99.90
30572;DHT22;17348;50.948;10.696;2024-03-06T14:16:27;10.50;99.90
30572;DHT22;17348;50.948;10.696;2024-03-06T14:19:31;10.40;99.90
30572;DHT22;17348;50.948;10.696;2024-03-06T14:22:33;10.40;99.90
30572;DHT22;17348;50.948;10.696;2024-03-06T14:25:36;10.30;99.90
30572;DHT22;17348;50.948;10.696;2024-03-06T14:28:39;10.20;99.90
30572;DHT22;17348;50.948;10.696;2024-03-06T14:31:41;10.10;99.90
30572;DHT22;17348;50.948;10.696;2024-03-06T14:34:45;10.00;99.90
30572;DHT22;17348;50.948;10.696;2024-03-06T14:37:48;10.00;99.90
30572;DHT22;17348;50.948;10.696;2024-03-06T14:40:50;10.00;99.90
30572;DHT22;17348;50.948;10.696;2024-03-06T14:43:52;10.10;99.90
30572;DHT22;17348;50.948;10.696;2024-03-06T14:46:55;10.30;99.90
30572;DHT22;17348;50.948;10.696;2024-03-06T14:49:59;10.30;99.90
30572;DHT22;17348;50.948;10.696;2024-03-06T14:53:01;10.20;99.90
30572;DHT22;17348;50.948;10.696;2024-03-06T14:56:04;10.10;99.90
30572;DHT22;17348;50.948;10.696;2024-03-06T14:59:07;10.10;99.90
30572;DHT22;17348;50.948;10.696;2024-03-06T15:02:09;10.00;99.90
30572;DHT22;17348;50.948;10.696;2024-03-06T15:05:13;10.00;99.90
30572;DHT22;17348;50.948;10.696;2024-03-06T15:08:16;10.10;99.90
30572;DHT22;17348;50.948;10.696;2024-03-06T15:11:19;10.20;99.90
30572;DHT22;17348;50.948;10.696;2024-03-06T15:14:23;10.20;99.90
30572;DHT22;17348;50.948;10.696;2024-03-06T15:17:25;10.10;99.90
30572;DHT22;17348;50.948;10.696;2024-03-06T15:20:29;10.10;99.90
30572;DHT22;17348;50.948;10.696;2024-03-06T15:23:33;10.10;99.90
30572;DHT22;17348;50.948;10.696;2024-03-06T15:26:36;10.00;99.90
30572;DHT22;17348;50.948;10.696;2024-03-06T15:29:39;10.00;99.90
30572;DHT22;17348;50.948;10.696;2024-03-06T15:32:41;9.90;99.90
30572;DHT22;17348;50.948;10.696;2024-03-06T15:35:44;9.70;99.90
30572;DHT22;17348;50.948;10.696;2024-03-06T15:38:47;9.70;99.90
30572;DHT22;17348;50.948;10.696;2024-03-06T15:41:49;9.60;99.90
30572;DHT22;17348;50.948;10.696;2024-03-06T15:44:52;9.50;99.90
30572;DHT22;17348;50.948;10.696;2024-03-06T15:47:54;9.40;99.90
30572;DHT22;17348;50.948;10.696;2024-03-06T15:50:58;9.30;99.90
30572;DHT22;17348;50.948;10.696;2024-03-06T15:54:01;9.30;99.90
30572;DHT22;17348;50.948;10.696;2024-03-06T15:57:04;9.20;99.90
30572;DHT22;17348;50.948;10.696;2024-03-06T16:00:08;9.20;99.90
30572;DHT22;17348;50.948;10.696;2024-03-06T16:03:14;9.10;99.90
30572;DHT22;17348;50.948;10.696;2024-03-06T16:06:18;9.10;99.90
30572;DHT22;17348;50.948;10.696;2024-03-06T16:09:20;9.10;99.90
30572;DHT22;17348;50.948;10.696;2024-03-06T16:12:23;9.00;99.90
30572;DHT22;17348;50.948;10.696;2024-03-06T16:15:25;9.00;99.90
30572;DHT22;17348;50.948;10.696;2024-03-06T16:18:28;8.90;99.90
30572;DHT22;17348;50.948;10.696;2024-03-06T16:21:31;8.80;99.90
30572;DHT22;17348;50.948;10.696;2024-03-06T16:24:34;8.80;99.90
30572;DHT22;17348;50.948;10.696;2024-03-06T16:27:36;8.80;99.90
30572;DHT22;17348;50.948;10.696;2024-03-06T16:30:38;8.70;99.90
30572;DHT22;17348;50.948;10.696;2024-03-06T16:33:41;8.70;99.90
30572;DHT22;17348;50.948;10.696;2024-03-06T16:36:49;8.60;99.90
30572;DHT22;17348;50.948;10.696;2024-03-06T16:39:51;8.60;99.90
30572;DHT22;17348;50.948;10.696;2024-03-06T16:42:54;8.50;99.90
30572;DHT22;17348;50.948;10.696;2024-03-06T16:45:56;8.40;99.90
30572;DHT22;17348;50.948;10.696;2024-03-06T16:48:58;8.40;99.90
30572;DHT22;17348;50.948;10.696;2024-03-06T16:52:02;8.40;99.90
30572;DHT22;17348;50.948;10.696;2024-03-06T16:55:07;8.30;99.90
30572;DHT22;17348;50.948;10.696;2024-03-06T16:58:10;8.30;99.90
30572;DHT22;17348;50.948;10.696;2024-03-06T17:01:12;8.20;99.90
30572;DHT22;17348;50.948;10.696;2024-03-06T17:04:15;8.20;99.90
30572;DHT22;17348;50.948;10.696;2024-03-06T17:07:19;8.10;99.90
30572;DHT22;17348;50.948;10.696;2024-03-06T17:10:24;8.10;99.90
30572;DHT22;17348;50.948;10.696;2024-03-06T17:13:26;8.00;99.90
30572;DHT22;17348;50.948;10.696;2024-03-06T17:16:29;8.00;99.90
30572;DHT22;17348;50.948;10.696;2024-03-06T17:19:31;8.00;99.90
30572;DHT22;17348;50.948;10.696;2024-03-06T17:22:35;8.00;99.90
30572;DHT22;17348;50.948;10.696;2024-03-06T17:25:37;7.90;99.90
30572;DHT22;17348;50.948;10.696;2024-03-06T17:28:39;7.80;99.90
30572;DHT22;17348;50.948;10.696;2024-03-06T17:31:43;7.80;99.90
30572;DHT22;17348;50.948;10.696;2024-03-06T17:34:47;7.70;99.90
30572;DHT22;17348;50.948;10.696;2024-03-06T17:37:52;7.70;99.90
30572;DHT22;17348;50.948;10.696;2024-03-06T17:40:54;7.60;99.90
30572;DHT22;17348;50.948;10.696;2024-03-06T17:43:56;7.50;99.90
30572;DHT22;17348;50.948;10.696;2024-03-06T17:46:59;7.40;99.90
30572;DHT22;17348;50.948;10.696;2024-03-06T17:50:01;7.30;99.90
30572;DHT22;17348;50.948;10.696;2024-03-06T17:53:05;7.20;99.90
30572;DHT22;17348;50.948;10.696;2024-03-06T17:56:08;7.10;99.90
30572;DHT22;17348;50.948;10.696;2024-03-06T17:59:11;7.00;99.90
30572;DHT22;17348;50.948;10.696;2024-03-06T18:02:13;6.90;99.90
30572;DHT22;17348;50.948;10.696;2024-03-06T18:05:15;6.80;99.90
30572;DHT22;17348;50.948;10.696;2024-03-06T18:08:19;6.80;99.90
30572;DHT22;17348;50.948;10.696;2024-03-06T18:11:21;6.70;99.90
30572;DHT22;17348;50.948;10.696;2024-03-06T18:14:24;6.70;99.90
30572;DHT22;17348;50.948;10.696;2024-03-06T18:17:26;6.70;99.90
30572;DHT22;17348;50.948;10.696;2024-03-06T18:20:28;6.70;99.90
30572;DHT22;17348;50.948;10.696;2024-03-06T18:23:32;6.70;99.90
30572;DHT22;17348;50.948;10.696;2024-03-06T18:26:35;6.70;99.90
30572;DHT22;17348;50.948;10.696;2024-03-06T18:29:37;6.80;99.90
30572;DHT22;17348;50.948;10.696;2024-03-06T18:32:39;6.80;99.90
30572;DHT22;17348;50.948;10.696;2024-03-06T18:35:42;6.80;99.90
30572;DHT22;17348;50.948;10.696;2024-03-06T18:38:46;6.70;99.90
30572;DHT22;17348;50.948;10.696;2024-03-06T18:41:49;6.70;99.90
30572;DHT22;17348;50.948;10.696;2024-03-06T18:44:52;6.70;99.90
30572;DHT22;17348;50.948;10.696;2024-03-06T18:47:54;6.60;99.90
30572;DHT22;17348;50.948;10.696;2024-03-06T18:50:57;6.60;99.90
30572;DHT22;17348;50.948;10.696;2024-03-06T18:54:01;6.60;99.90
30572;DHT22;17348;50.948;10.696;2024-03-06T18:57:03;6.60;99.90
30572;DHT22;17348;50.948;10.696;2024-03-06T19:00:08;6.50;99.90
30572;DHT22;17348;50.948;10.696;2024-03-06T19:03:12;6.50;99.90
30572;DHT22;17348;50.948;10.696;2024-03-06T19:06:16;6.50;99.90
30572;DHT22;17348;50.948;10.696;2024-03-06T19:09:19;6.50;99.90
30572;DHT22;17348;50.948;10.696;2024-03-06T19:12:22;6.50;99.90
30572;DHT22;17348;50.948;10.696;2024-03-06T19:15:24;6.40;99.90
30572;DHT22;17348;50.948;10.696;2024-03-06T19:18:26;6.40;99.90